Time;durP1;ratioP1;P1;durP2;ratioP2;P2;SDS_P1;SDS_P2;PMS_P1;PMS_P2;Temp;Humidity;BMP_temperature;BMP_pressure;BME280_temperature;BME280_humidity;BME280_pressure;Samples;Min_cycle;Max_cycle;Signal;HPM_P1;HPM_P2
2021/03/19 00:01:31;;;;;;;16.10;11.45;;;4.10;99.90;;;;;;5094173;28;20100;-79
2021/03/19 00:03:56;;;;;;;16.15;11.15;;;4.40;99.90;;;;;;5095865;28;20044;-79
2021/03/19 00:06:22;;;;;;;14.48;10.77;;;3.70;99.90;;;;;;5096599;28;20102;-79
2021/03/19 00:08:48;;;;;;;13.63;10.30;;;3.70;99.90;;;;;;5096767;28;20077;-79
2021/03/19 00:11:13;;;;;;;14.15;10.02;;;4.00;99.90;;;;;;5096359;28;20106;-79
2021/03/19 00:13:40;;;;;;;14.95;10.38;;;3.40;99.90;;;;;;5096730;28;20103;-79
2021/03/19 00:16:07;;;;;;;17.88;10.60;;;3.90;99.90;;;;;;5085196;28;20035;-79
2021/03/19 00:18:37;;;;;;;14.55;10.52;;;3.50;99.90;;;;;;5061182;28;21520;-79
2021/03/19 00:21:03;;;;;;;13.73;10.48;;;3.50;99.90;;;;;;5095785;28;20407;-79
2021/03/19 00:23:29;;;;;;;16.08;10.93;;;3.60;99.90;;;;;;5096103;28;20073;-79
2021/03/19 00:25:55;;;;;;;14.27;10.32;;;3.60;99.90;;;;;;5096393;28;20020;-79
2021/03/19 00:28:20;;;;;;;15.80;10.50;;;3.60;99.90;;;;;;5096283;28;20081;-79
2021/03/19 00:30:47;;;;;;;15.80;10.77;;;3.70;99.90;;;;;;5095710;28;20016;-79
2021/03/19 00:33:14;;;;;;;14.13;10.95;;;4.10;99.90;;;;;;5094287;28;20031;-79
2021/03/19 00:35:41;;;;;;;17.50;10.48;;;4.10;99.90;;;;;;5075412;28;20029;-79
2021/03/19 00:38:07;;;;;;;11.18;9.90;;;3.70;99.90;;;;;;5075593;28;20073;-79
2021/03/19 00:40:34;;;;;;;14.63;10.55;;;3.70;99.90;;;;;;5075236;28;20056;-79
2021/03/19 00:43:00;;;;;;;14.32;10.70;;;3.80;99.90;;;;;;5074360;28;20037;-79
2021/03/19 00:45:27;;;;;;;17.27;11.40;;;3.70;99.90;;;;;;5074869;28;20029;-79
2021/03/19 00:47:54;;;;;;;17.13;11.38;;;3.90;99.90;;;;;;5075446;28;20021;-79
2021/03/19 00:50:33;;;;;;;14.50;11.27;;;3.90;99.90;;;;;;5095726;28;20103;-79
2021/03/19 00:52:58;;;;;;;15.60;10.60;;;3.70;99.90;;;;;;5095757;28;20027;-79
2021/03/19 00:55:25;;;;;;;13.93;10.82;;;3.80;99.90;;;;;;5095784;28;20024;-79
2021/03/19 00:57:51;;;;;;;17.98;11.10;;;3.80;99.90;;;;;;5095607;28;20376;-79
2021/03/19 01:00:18;;;;;;;15.00;11.18;;;3.60;99.90;;;;;;5095237;28;20032;-79
2021/03/19 01:02:44;;;;;;;13.93;10.60;;;3.50;99.90;;;;;;5095072;28;20020;-79
2021/03/19 01:05:28;;;;;;;14.13;10.60;;;3.90;99.90;;;;;;5095680;28;20053;-79
2021/03/19 01:07:53;;;;;;;15.70;10.63;;;3.40;99.90;;;;;;5095378;28;20097;-79
2021/03/19 01:10:31;;;;;;;13.88;11.23;;;3.90;99.90;;;;;;5095258;28;20414;-79
2021/03/19 01:12:57;;;;;;;13.05;10.15;;;3.50;99.90;;;;;;5095269;28;20495;-79
2021/03/19 01:15:23;;;;;;;17.02;10.73;;;3.90;99.90;;;;;;5094968;28;20024;-79
2021/03/19 01:17:49;;;;;;;13.93;10.10;;;3.50;99.90;;;;;;5094875;28;20488;-79
2021/03/19 01:20:16;;;;;;;15.93;11.13;;;3.70;99.90;;;;;;5095294;28;20070;-79
2021/03/19 01:22:42;;;;;;;14.07;10.73;;;3.80;99.90;;;;;;5095277;28;20486;-79
2021/03/19 01:25:12;;;;;;;14.15;10.88;;;3.90;99.90;;;;;;5095343;28;20085;-79
2021/03/19 01:27:38;;;;;;;16.02;11.48;;;3.60;99.90;;;;;;5095165;28;20028;-79
2021/03/19 01:30:06;;;;;;;15.75;11.32;;;3.50;99.90;;;;;;5094828;28;20065;-78
2021/03/19 01:32:32;;;;;;;15.40;10.98;;;3.40;99.90;;;;;;5094446;28;20077;-79
2021/03/19 01:34:57;;;;;;;14.48;11.10;;;3.40;99.90;;;;;;5094831;28;20028;-79
2021/03/19 01:37:23;;;;;;;17.50;11.30;;;3.80;99.90;;;;;;5094921;28;20081;-79
2021/03/19 01:39:49;;;;;;;15.70;11.05;;;3.50;99.90;;;;;;5094756;28;20060;-79
2021/03/19 01:42:14;;;;;;;14.75;11.90;;;3.50;99.90;;;;;;5094698;28;20524;-79
2021/03/19 01:44:51;;;;;;;13.60;10.95;;;3.40;99.90;;;;;;5094179;28;20040;-79
2021/03/19 01:47:54;;;;;;;15.73;10.95;;;3.50;99.90;;;;;;5094284;28;20054;-79
2021/03/19 01:50:57;;;;;;;12.20;10.40;;;3.50;99.90;;;;;;5094650;28;20103;-79
2021/03/19 01:54:00;;;;;;;16.55;11.07;;;3.50;99.90;;;;;;5094321;28;20032;-79
2021/03/19 01:57:03;;;;;;;15.40;10.73;;;3.40;99.90;;;;;;5094749;28;20078;-79
2021/03/19 02:00:06;;;;;;;14.55;10.48;;;3.50;99.90;;;;;;5094062;28;20051;-78
2021/03/19 02:03:09;;;;;;;13.82;10.68;;;3.50;99.90;;;;;;5094412;28;20043;-78
2021/03/19 02:06:11;;;;;;;13.90;11.07;;;3.50;99.90;;;;;;5094497;28;20415;-78
2021/03/19 02:09:14;;;;;;;15.18;10.38;;;3.50;99.90;;;;;;5094216;28;20042;-79
2021/03/19 02:12:17;;;;;;;13.95;10.48;;;3.40;99.90;;;;;;5076371;28;20038;-79
2021/03/19 02:15:21;;;;;;;15.93;10.23;;;3.40;99.90;;;;;;5064822;28;20489;-79
2021/03/19 02:18:23;;;;;;;14.50;10.70;;;3.30;99.90;;;;;;5093977;28;20103;-79
2021/03/19 02:21:26;;;;;;;16.25;11.10;;;3.30;99.90;;;;;;5094159;28;20053;-79
2021/03/19 02:24:29;;;;;;;15.60;10.80;;;3.20;99.90;;;;;;5092709;28;20035;-79
2021/03/19 02:27:32;;;;;;;15.73;10.43;;;3.20;99.90;;;;;;5093642;28;20028;-78
2021/03/19 02:30:35;;;;;;;15.63;11.68;;;3.20;99.90;;;;;;5075515;28;20157;-78
2021/03/19 02:33:02;;;;;;;16.02;11.07;;;3.20;99.90;;;;;;5073709;28;20376;-79
2021/03/19 02:35:27;;;;;;;16.45;10.57;;;3.70;99.90;;;;;;5091563;28;20412;-79
2021/03/19 02:37:53;;;;;;;14.75;10.70;;;3.60;99.90;;;;;;5093746;28;20032;-79
2021/03/19 02:40:22;;;;;;;14.30;10.88;;;3.20;99.90;;;;;;5093645;28;20020;-79
2021/03/19 02:42:48;;;;;;;17.48;11.52;;;3.10;99.90;;;;;;5093175;28;20028;-79
2021/03/19 02:45:18;;;;;;;14.18;10.65;;;3.10;99.90;;;;;;5093346;28;20028;-79
2021/03/19 02:47:44;;;;;;;14.05;10.07;;;3.00;99.90;;;;;;5093178;28;20028;-79
2021/03/19 02:50:11;;;;;;;15.10;11.00;;;3.00;99.90;;;;;;5093621;28;20031;-79
2021/03/19 02:52:39;;;;;;;14.45;11.05;;;3.00;99.90;;;;;;5093484;28;20109;-78
2021/03/19 02:55:07;;;;;;;14.85;10.45;;;3.00;99.90;;;;;;5075474;28;20131;-79
2021/03/19 02:57:33;;;;;;;16.63;10.68;;;3.00;99.90;;;;;;5093275;28;20034;-79
2021/03/19 02:59:59;;;;;;;14.65;11.23;;;3.00;99.90;;;;;;5093690;28;20107;-79
2021/03/19 03:02:24;;;;;;;14.85;10.73;;;2.90;99.90;;;;;;5093055;28;20103;-78
2021/03/19 03:04:50;;;;;;;15.65;10.50;;;2.90;99.90;;;;;;5093115;28;20108;-78
2021/03/19 03:07:28;;;;;;;16.50;10.90;;;2.80;99.90;;;;;;5093420;28;20024;-79
2021/03/19 03:09:54;;;;;;;16.25;11.07;;;2.90;99.90;;;;;;5075103;28;20023;-79
2021/03/19 03:12:20;;;;;;;16.13;11.20;;;2.90;99.90;;;;;;5093036;28;20032;-79
2021/03/19 03:14:46;;;;;;;13.30;10.38;;;2.80;99.90;;;;;;5092503;28;20024;-79
2021/03/19 03:17:13;;;;;;;14.32;11.20;;;3.10;99.90;;;;;;5074486;28;20039;-79
2021/03/19 03:19:39;;;;;;;15.80;11.30;;;2.70;99.90;;;;;;5092872;28;20103;-79
2021/03/19 03:22:06;;;;;;;15.27;11.73;;;2.70;99.90;;;;;;5092940;28;20480;-79
2021/03/19 03:24:32;;;;;;;15.45;11.25;;;3.10;99.90;;;;;;5074663;28;20503;-79
2021/03/19 03:26:58;;;;;;;15.75;11.40;;;2.70;99.90;;;;;;5093129;28;20032;-79
2021/03/19 03:29:25;;;;;;;14.80;11.77;;;2.80;99.90;;;;;;5092913;28;20024;-79
2021/03/19 03:31:52;;;;;;;13.50;11.13;;;2.80;99.90;;;;;;5092574;28;20074;-79
2021/03/19 03:34:18;;;;;;;15.88;11.05;;;2.80;99.90;;;;;;5092807;28;20024;-79
2021/03/19 03:36:44;;;;;;;13.18;10.52;;;3.20;99.90;;;;;;5078828;28;20043;-79
2021/03/19 03:39:14;;;;;;;16.27;11.73;;;3.30;99.90;;;;;;5097151;28;20024;-79
2021/03/19 03:41:41;;;;;;;15.65;11.15;;;2.70;99.90;;;;;;5097289;28;20032;-79
2021/03/19 03:44:07;;;;;;;16.25;11.05;;;2.80;99.90;;;;;;5097062;28;20028;-78
2021/03/19 03:46:33;;;;;;;14.95;11.32;;;2.70;99.90;;;;;;5096534;28;20028;-78
2021/03/19 03:48:59;;;;;;;16.13;11.38;;;2.80;99.90;;;;;;5097190;28;20016;-78
2021/03/19 03:51:27;;;;;;;15.13;11.35;;;2.70;99.90;;;;;;5096931;28;20047;-79
2021/03/19 03:53:53;;;;;;;17.13;12.05;;;2.80;99.90;;;;;;5096716;28;20027;-79
2021/03/19 03:56:20;;;;;;;15.65;11.68;;;2.80;99.90;;;;;;5097072;28;20028;-79
2021/03/19 03:58:46;;;;;;;16.90;11.10;;;3.10;99.90;;;;;;5096627;28;20031;-79
2021/03/19 04:01:12;;;;;;;15.57;11.80;;;2.90;99.90;;;;;;5096507;28;20028;-79
2021/03/19 04:03:38;;;;;;;14.73;11.18;;;3.40;99.90;;;;;;5096413;28;20051;-79
2021/03/19 04:06:05;;;;;;;14.27;10.75;;;2.90;99.90;;;;;;5096816;28;20024;-79
2021/03/19 04:08:32;;;;;;;14.90;10.77;;;3.00;99.90;;;;;;5096401;28;20471;-79
2021/03/19 04:11:00;;;;;;;15.23;11.15;;;3.00;99.90;;;;;;5096353;28;20412;-79
2021/03/19 04:13:28;;;;;;;18.15;11.85;;;3.00;99.90;;;;;;5096836;28;20027;-79
2021/03/19 04:15:54;;;;;;;15.75;11.70;;;3.10;99.90;;;;;;5096557;28;20024;-79
2021/03/19 04:18:20;;;;;;;16.85;11.63;;;3.50;99.90;;;;;;5096277;28;20051;-79
2021/03/19 04:20:48;;;;;;;14.45;11.50;;;3.10;99.90;;;;;;5096333;28;20066;-79
2021/03/19 04:23:14;;;;;;;14.95;11.25;;;3.20;99.90;;;;;;5095821;28;20023;-79
2021/03/19 04:25:40;;;;;;;14.48;10.52;;;3.00;99.90;;;;;;5096067;28;20107;-79
2021/03/19 04:28:13;;;;;;;17.02;12.15;;;2.90;99.90;;;;;;5095982;28;20016;-79
2021/03/19 04:30:41;;;;;;;19.88;12.02;;;2.80;99.90;;;;;;5095851;28;20028;-79
2021/03/19 04:33:16;;;;;;;15.50;11.45;;;2.80;99.90;;;;;;5096342;28;20020;-79
2021/03/19 04:35:42;;;;;;;17.67;11.82;;;3.20;99.90;;;;;;5096055;28;20024;-79
2021/03/19 04:38:13;;;;;;;14.93;12.07;;;3.00;99.90;;;;;;5095496;28;20027;-79
2021/03/19 04:40:43;;;;;;;17.58;11.63;;;3.00;99.90;;;;;;5096191;28;20024;-79
2021/03/19 04:43:10;;;;;;;16.63;11.00;;;2.80;99.90;;;;;;5095864;28;20035;-79
2021/03/19 04:45:41;;;;;;;14.18;11.68;;;2.90;99.90;;;;;;5095527;28;20027;-79
2021/03/19 04:48:07;;;;;;;16.88;11.93;;;2.70;99.90;;;;;;5095231;28;20107;-79
2021/03/19 04:50:33;;;;;;;17.42;12.02;;;2.80;99.90;;;;;;5095793;28;20095;-79
2021/03/19 04:53:00;;;;;;;15.63;12.23;;;2.70;99.90;;;;;;5095125;28;20376;-79
2021/03/19 04:55:26;;;;;;;14.48;11.45;;;2.70;99.90;;;;;;5095756;28;20036;-79
2021/03/19 04:57:52;;;;;;;17.02;11.20;;;3.40;99.90;;;;;;5095519;28;20545;-79
2021/03/19 05:00:19;;;;;;;16.13;11.98;;;2.60;99.90;;;;;;5095532;28;20495;-79
2021/03/19 05:02:47;;;;;;;14.57;11.63;;;2.70;99.90;;;;;;5094738;28;20019;-79
2021/03/19 05:05:19;;;;;;;15.10;11.75;;;2.60;99.90;;;;;;5095394;28;20028;-79
2021/03/19 05:07:45;;;;;;;16.98;11.65;;;2.50;99.90;;;;;;5095325;28;20511;-79
2021/03/19 05:10:12;;;;;;;18.50;11.60;;;2.50;99.90;;;;;;5095550;28;20032;-79
2021/03/19 05:12:38;;;;;;;15.48;11.55;;;2.50;99.90;;;;;;5095362;28;20016;-79
2021/03/19 05:15:05;;;;;;;18.70;12.55;;;2.50;99.90;;;;;;5095674;28;20388;-79
2021/03/19 05:17:33;;;;;;;16.95;12.10;;;2.60;99.90;;;;;;5095470;28;20107;-79
2021/03/19 05:19:59;;;;;;;16.63;12.00;;;2.50;99.90;;;;;;5095110;28;20028;-79
2021/03/19 05:22:25;;;;;;;20.80;12.10;;;2.50;99.90;;;;;;5094543;28;20028;-79
2021/03/19 05:24:51;;;;;;;18.63;12.80;;;3.10;99.90;;;;;;5095261;28;20383;-79
2021/03/19 05:27:17;;;;;;;18.65;12.35;;;2.40;99.90;;;;;;5094892;28;20073;-79
2021/03/19 05:29:43;;;;;;;18.75;12.20;;;2.50;99.90;;;;;;5094975;28;20024;-79
2021/03/19 05:32:09;;;;;;;19.13;13.32;;;2.50;99.90;;;;;;5094952;28;20039;-79
2021/03/19 05:34:35;;;;;;;17.95;12.88;;;2.50;99.90;;;;;;5094785;28;20036;-79
2021/03/19 05:37:01;;;;;;;17.50;12.70;;;2.50;99.90;;;;;;5094515;28;20098;-79
2021/03/19 05:39:26;;;;;;;16.63;12.25;;;2.40;99.90;;;;;;5095015;28;20095;-79
2021/03/19 05:41:52;;;;;;;19.00;12.38;;;2.50;99.90;;;;;;5094557;28;20028;-79
2021/03/19 05:44:24;;;;;;;16.33;12.32;;;2.40;99.90;;;;;;5094883;28;20154;-79
2021/03/19 05:46:51;;;;;;;17.60;12.23;;;2.50;99.90;;;;;;5094682;28;20566;-79
2021/03/19 05:49:20;;;;;;;17.38;12.63;;;2.40;99.90;;;;;;5093752;28;20103;-79
2021/03/19 05:51:52;;;;;;;18.50;12.23;;;2.50;99.90;;;;;;5094104;28;20031;-79
2021/03/19 05:54:39;;;;;;;18.00;12.60;;;2.50;99.90;;;;;;5094285;28;20039;-79
2021/03/19 05:57:07;;;;;;;18.13;12.55;;;2.50;99.90;;;;;;5093704;28;20024;-79
2021/03/19 05:59:44;;;;;;;15.13;11.20;;;2.50;99.90;;;;;;5091585;28;20582;-79
2021/03/19 06:02:28;;;;;;;20.90;13.30;;;2.50;99.90;;;;;;5094192;28;20454;-79
2021/03/19 06:05:17;;;;;;;16.33;11.98;;;2.60;99.90;;;;;;5093522;28;20085;-79
2021/03/19 06:07:53;;;;;;;19.40;12.10;;;2.60;99.90;;;;;;5094402;28;20103;-79
2021/03/19 06:10:33;;;;;;;19.83;11.88;;;2.60;99.90;;;;;;5090422;28;20028;-79
2021/03/19 06:13:04;;;;;;;17.38;12.13;;;2.60;99.90;;;;;;5094136;28;20046;-79
2021/03/19 06:15:37;;;;;;;16.35;12.30;;;2.60;99.90;;;;;;5094112;28;20024;-79
2021/03/19 06:18:15;;;;;;;20.88;12.93;;;2.50;99.90;;;;;;5086594;28;20078;-79
2021/03/19 06:21:01;;;;;;;20.67;13.25;;;2.50;99.90;;;;;;5112320;27;20656;-78
2021/03/19 06:23:27;;;;;;;15.77;12.05;;;2.70;99.90;;;;;;5131444;28;20035;-78
2021/03/19 06:26:02;;;;;;;16.13;12.57;;;2.40;99.90;;;;;;5127863;28;20096;-78
2021/03/19 06:28:32;;;;;;;17.50;12.30;;;2.40;99.90;;;;;;5110945;28;20032;-78
2021/03/19 06:31:33;;;;;;;18.50;13.10;;;3.00;99.90;;;;;;5110387;28;20460;-78
2021/03/19 06:34:22;;;;;;;19.42;12.68;;;2.50;99.90;;;;;;5047738;28;20021;-78
2021/03/19 06:37:00;;;;;;;19.27;12.88;;;2.90;99.90;;;;;;5040846;28;20539;-78
2021/03/19 06:39:44;;;;;;;17.38;13.05;;;2.60;99.90;;;;;;5030265;28;20385;-78
2021/03/19 06:42:18;;;;;;;17.63;12.52;;;2.70;99.90;;;;;;5035896;28;20420;-78
2021/03/19 06:45:15;;;;;;;19.25;13.02;;;2.60;99.90;;;;;;5056068;28;20560;-78
2021/03/19 06:47:48;;;;;;;21.42;13.75;;;2.70;99.90;;;;;;5047653;28;20041;-78
2021/03/19 06:50:39;;;;;;;16.63;12.68;;;2.70;99.90;;;;;;5047668;28;20029;-78
2021/03/19 06:53:22;;;;;;;18.42;13.50;;;2.80;99.90;;;;;;5047641;28;20445;-77
2021/03/19 06:55:56;;;;;;;18.27;12.63;;;2.80;99.90;;;;;;5058135;28;20813;-78
2021/03/19 06:58:48;;;;;;;17.55;13.48;;;2.90;99.90;;;;;;5048375;28;20068;-78
2021/03/19 07:01:36;;;;;;;18.98;13.23;;;2.90;99.90;;;;;;5047287;28;20030;-78
2021/03/19 07:04:13;;;;;;;17.50;12.68;;;3.00;99.90;;;;;;5046985;28;20537;-79
2021/03/19 07:07:07;;;;;;;21.05;13.38;;;3.00;99.90;;;;;;5066304;28;20083;-78
2021/03/19 07:10:15;;;;;;;15.18;12.40;;;3.10;99.90;;;;;;5097427;28;20032;-78
2021/03/19 07:13:11;;;;;;;17.30;12.32;;;3.20;99.90;;;;;;5107085;28;20522;-78
2021/03/19 07:16:03;;;;;;;20.73;12.43;;;3.30;99.90;;;;;;5105669;28;20031;-78
2021/03/19 07:18:48;;;;;;;15.05;11.45;;;3.40;99.90;;;;;;5108000;28;20035;-78
2021/03/19 07:21:58;;;;;;;18.50;11.77;;;3.40;99.90;;;;;;5108980;28;20034;-78
2021/03/19 07:24:30;;;;;;;17.27;11.68;;;3.40;99.90;;;;;;5086275;28;20041;-78
2021/03/19 07:27:33;;;;;;;16.90;11.60;;;3.40;99.90;;;;;;5088643;28;20069;-78
2021/03/19 07:29:58;;;;;;;15.55;10.93;;;3.40;99.90;;;;;;5050206;28;20501;-78
2021/03/19 07:32:33;;;;;;;15.27;11.23;;;3.50;99.90;;;;;;5033749;28;20034;-78
2021/03/19 07:35:22;;;;;;;16.75;11.38;;;3.60;99.90;;;;;;5035075;28;20436;-80
2021/03/19 07:37:48;;;;;;;16.60;11.00;;;3.70;99.90;;;;;;5029073;28;20021;-78
2021/03/19 07:40:22;;;;;;;14.45;10.50;;;3.70;99.90;;;;;;5031652;28;20057;-77
2021/03/19 07:43:25;;;;;;;16.27;9.55;;;3.60;99.90;;;;;;5027549;28;20042;-78
2021/03/19 07:46:00;;;;;;;13.07;10.50;;;3.70;99.90;;;;;;5030145;28;20033;-78
2021/03/19 07:48:31;;;;;;;12.95;9.25;;;3.80;99.90;;;;;;5037087;28;20505;-78
2021/03/19 07:51:08;;;;;;;12.98;8.95;;;3.80;99.90;;;;;;5027863;28;20021;-78
2021/03/19 07:53:58;;;;;;;14.38;10.52;;;4.60;99.90;;;;;;5035578;28;20029;-78
2021/03/19 07:56:29;;;;;;;14.65;10.70;;;4.30;99.90;;;;;;5031344;28;20401;-78
2021/03/19 07:59:05;;;;;;;15.38;9.95;;;4.30;99.90;;;;;;5032532;28;20034;-78
2021/03/19 08:01:42;;;;;;;14.60;9.77;;;4.20;99.90;;;;;;5044333;28;20037;-78
2021/03/19 08:04:29;;;;;;;14.20;9.98;;;4.50;99.90;;;;;;5035444;28;20374;-78
2021/03/19 08:07:00;;;;;;;14.82;10.18;;;4.60;99.90;;;;;;5076338;28;20028;-78
2021/03/19 08:09:50;;;;;;;14.20;9.18;;;5.20;99.90;;;;;;5094346;28;20094;-78
2021/03/19 08:12:21;;;;;;;12.45;9.02;;;4.60;99.90;;;;;;5094557;28;20492;-78
2021/03/19 08:15:12;;;;;;;12.07;8.93;;;4.70;99.90;;;;;;5093917;28;20020;-78
2021/03/19 08:17:59;;;;;;;13.85;9.82;;;4.60;99.90;;;;;;5094340;28;20055;-78
2021/03/19 08:20:45;;;;;;;11.52;8.63;;;4.50;99.90;;;;;;5090077;28;20037;-78
2021/03/19 08:23:20;;;;;;;12.95;9.20;;;4.60;99.90;;;;;;5093484;28;20024;-78
2021/03/19 08:25:48;;;;;;;15.23;9.68;;;4.90;99.90;;;;;;5093407;28;20430;-78
2021/03/19 08:28:20;;;;;;;14.77;10.13;;;5.30;99.90;;;;;;5095161;28;20103;-79
2021/03/19 08:31:13;;;;;;;14.80;9.20;;;5.10;99.90;;;;;;5094844;28;20020;-79
2021/03/19 08:34:03;;;;;;;12.75;9.10;;;5.50;99.90;;;;;;5095449;28;20031;-79
2021/03/19 08:36:46;;;;;;;12.40;8.63;;;5.40;99.90;;;;;;5098611;28;20016;-79
2021/03/19 08:39:33;;;;;;;11.55;7.70;;;5.50;99.90;;;;;;5094267;28;20460;-79
2021/03/19 08:42:19;;;;;;;9.60;7.88;;;5.40;99.90;;;;;;5087827;28;20031;-78
2021/03/19 08:44:46;;;;;;;12.00;7.63;;;5.50;99.90;;;;;;5093209;28;20044;-79
2021/03/19 08:47:22;;;;;;;10.73;7.38;;;5.80;99.90;;;;;;5100724;28;20594;-79
2021/03/19 08:49:51;;;;;;;12.02;7.40;;;5.60;99.90;;;;;;5094509;28;20020;-78
2021/03/19 08:52:27;;;;;;;9.40;7.15;;;5.80;99.90;;;;;;5094594;28;20028;-79
2021/03/19 08:55:15;;;;;;;9.10;6.85;;;5.90;99.90;;;;;;5093426;28;20024;-79
2021/03/19 08:57:45;;;;;;;10.63;6.38;;;6.00;99.90;;;;;;5093647;28;20047;-79
2021/03/19 09:00:35;;;;;;;6.97;6.13;;;6.10;99.90;;;;;;5094021;28;20062;-78
2021/03/19 09:03:11;;;;;;;10.63;5.45;;;6.30;99.90;;;;;;5090359;28;20561;-78
2021/03/19 09:06:05;;;;;;;9.77;6.38;;;6.40;99.90;;;;;;5094172;28;20036;-79
2021/03/19 09:08:43;;;;;;;6.75;5.22;;;6.60;99.90;;;;;;5099809;28;20019;-78
2021/03/19 09:11:13;;;;;;;6.85;5.25;;;6.90;99.90;;;;;;5114775;28;20028;-79
2021/03/19 09:14:04;;;;;;;8.48;5.28;;;7.00;99.90;;;;;;5113869;28;20015;-79
2021/03/19 09:16:48;;;;;;;7.82;4.60;;;8.80;99.90;;;;;;5114295;28;20027;-79
2021/03/19 09:19:32;;;;;;;6.05;4.70;;;13.90;99.90;;;;;;5114401;28;20113;-79
2021/03/19 09:22:19;;;;;;;6.32;4.40;;;17.40;99.90;;;;;;5106970;28;20035;-79
2021/03/19 09:25:14;;;;;;;8.13;5.18;;;20.40;99.90;;;;;;5100537;28;20040;-79
2021/03/19 09:27:41;;;;;;;7.30;4.95;;;21.00;99.90;;;;;;5100782;28;20058;-79
2021/03/19 09:30:22;;;;;;;6.03;4.57;;;24.00;99.90;;;;;;5099915;28;20016;-79
2021/03/19 09:32:58;;;;;;;6.63;4.80;;;22.90;99.90;;;;;;5083311;28;20066;-79
2021/03/19 09:35:44;;;;;;;7.65;4.80;;;23.10;99.90;;;;;;5097393;28;20019;-79
2021/03/19 09:38:23;;;;;;;5.53;4.90;;;22.60;99.90;;;;;;5107987;28;20127;-80
2021/03/19 09:41:01;;;;;;;6.15;4.40;;;24.90;99.90;;;;;;5108124;28;20103;-80
2021/03/19 09:43:38;;;;;;;5.13;4.68;;;26.80;99.90;;;;;;5107765;28;20422;-80
2021/03/19 09:46:12;;;;;;;5.90;5.10;;;25.20;99.90;;;;;;5097937;28;20032;-80
2021/03/19 09:48:38;;;;;;;5.28;4.78;;;25.50;99.90;;;;;;5103439;28;20540;-80
2021/03/19 09:51:14;;;;;;;6.60;4.80;;;25.40;99.90;;;;;;5093307;28;20059;-80
2021/03/19 09:53:39;;;;;;;5.40;4.90;;;27.40;99.90;;;;;;5095746;28;20077;-80
2021/03/19 09:56:18;;;;;;;6.53;4.93;;;27.00;99.90;;;;;;5092204;28;20020;-80
2021/03/19 09:58:53;;;;;;;6.57;5.13;;;26.80;99.90;;;;;;5093074;28;20037;-80
2021/03/19 10:01:25;;;;;;;6.10;5.22;;;27.40;99.90;;;;;;5093054;28;20095;-80
2021/03/19 10:03:59;;;;;;;5.50;4.95;;;28.70;99.90;;;;;;5092494;28;20077;-80
2021/03/19 10:06:35;;;;;;;5.47;4.97;;;28.10;99.90;;;;;;5093390;28;20073;-80
2021/03/19 10:09:09;;;;;;;6.00;5.05;;;29.10;99.90;;;;;;5098466;28;20023;-81
2021/03/19 10:11:48;;;;;;;5.40;4.90;;;29.10;99.90;;;;;;5098265;28;20028;-81
2021/03/19 10:14:31;;;;;;;5.30;4.80;;;28.40;99.90;;;;;;5072918;28;20059;-81
2021/03/19 10:17:24;;;;;;;6.32;4.43;;;28.80;99.90;;;;;;5073058;28;20082;-81
2021/03/19 10:20:14;;;;;;;5.03;4.55;;;27.40;99.90;;;;;;5076359;28;20454;-80
2021/03/19 10:22:48;;;;;;;5.35;4.88;;;27.60;99.90;;;;;;5093146;28;20028;-80
2021/03/19 10:25:34;;;;;;;5.28;4.72;;;26.00;99.90;;;;;;5072644;28;20029;-78
2021/03/19 10:28:04;;;;;;;5.15;4.63;;;26.50;99.90;;;;;;5072847;28;20105;-78
2021/03/19 10:30:35;;;;;;;4.95;4.55;;;22.30;99.90;;;;;;5072956;28;20543;-78
2021/03/19 10:33:24;;;;;;;6.10;5.32;;;26.60;99.90;;;;;;5072822;28;20024;-78
2021/03/19 10:35:55;;;;;;;4.85;4.35;;;29.20;99.90;;;;;;5068753;28;20044;-78
2021/03/19 10:38:33;;;;;;;5.25;4.28;;;32.00;99.90;;;;;;5089237;28;20467;-78
2021/03/19 10:41:20;;;;;;;4.90;4.47;;;33.40;99.90;;;;;;5113159;28;20027;-80
2021/03/19 10:44:21;;;;;;;5.10;4.60;;;33.90;99.90;;;;;;5113188;28;20026;-79
2021/03/19 10:47:01;;;;;;;5.32;4.88;;;28.00;99.90;;;;;;5099869;28;20090;-78
2021/03/19 10:49:52;;;;;;;5.40;4.95;;;25.10;99.90;;;;;;5092770;28;20032;-78
2021/03/19 10:52:36;;;;;;;5.57;5.07;;;28.80;99.90;;;;;;5092957;28;20032;-78
2021/03/19 10:55:13;;;;;;;7.65;5.28;;;20.70;99.90;;;;;;5091798;28;20489;-78
2021/03/19 10:57:41;;;;;;;5.45;4.90;;;23.70;99.90;;;;;;5092002;28;20107;-78
2021/03/19 11:00:28;;;;;;;5.60;5.10;;;28.90;99.90;;;;;;5090865;28;20439;-78
2021/03/19 11:03:00;;;;;;;6.00;5.50;;;24.30;99.90;;;;;;5092112;28;20401;-78
2021/03/19 11:05:27;;;;;;;5.32;4.82;;;23.40;99.90;;;;;;5091953;28;20035;-78
2021/03/19 11:07:53;;;;;;;5.57;4.97;;;19.70;99.90;;;;;;5108494;28;20018;-78
2021/03/19 11:10:24;;;;;;;5.25;4.72;;;17.80;99.90;;;;;;5105912;27;20016;-80
2021/03/19 11:12:52;;;;;;;5.85;5.30;;;17.80;99.90;;;;;;5107084;28;20024;-78
2021/03/19 11:15:28;;;;;;;6.07;5.43;;;24.70;99.90;;;;;;5099332;28;20029;-79
2021/03/19 11:18:26;;;;;;;6.78;5.45;;;25.80;99.90;;;;;;5096582;28;20027;-79
2021/03/19 11:20:57;;;;;;;5.95;5.35;;;22.10;99.90;;;;;;5099583;28;20032;-79
2021/03/19 11:23:38;;;;;;;5.38;4.88;;;17.70;99.90;;;;;;5095741;28;20024;-81
2021/03/19 11:26:34;;;;;;;5.57;5.07;;;15.60;99.90;;;;;;5096066;28;20028;-80
2021/03/19 11:29:12;;;;;;;5.40;4.90;;;18.10;99.90;;;;;;5091303;28;20048;-80
2021/03/19 11:31:57;;;;;;;5.90;5.20;;;18.80;99.90;;;;;;5110124;28;20153;-80
2021/03/19 11:34:50;;;;;;;6.00;5.50;;;23.20;99.90;;;;;;5116372;28;20027;-80
2021/03/19 11:37:33;;;;;;;5.72;5.10;;;26.90;99.90;;;;;;5115890;28;20077;-80
2021/03/19 11:40:09;;;;;;;6.97;6.28;;;23.80;99.90;;;;;;5116443;28;20035;-80
2021/03/19 11:42:44;;;;;;;7.00;6.38;;;19.50;99.90;;;;;;5115829;28;20027;-82
2021/03/19 11:45:19;;;;;;;6.60;6.00;;;16.80;99.90;;;;;;5109824;28;20024;-83
2021/03/19 11:47:57;;;;;;;7.88;6.90;;;14.90;99.90;;;;;;5095630;28;20113;-80
2021/03/19 11:50:23;;;;;;;8.23;7.40;;;13.80;99.90;;;;;;5098743;28;20107;-80
2021/03/19 11:53:01;;;;;;;7.97;7.18;;;13.00;99.90;;;;;;5099704;28;20024;-80
2021/03/19 11:55:32;;;;;;;8.90;8.02;;;12.50;99.90;;;;;;5083747;28;20031;-80
2021/03/19 11:57:58;;;;;;;8.52;7.38;;;12.30;99.90;;;;;;5103487;28;20108;-80
2021/03/19 12:00:28;;;;;;;8.35;7.53;;;12.40;99.90;;;;;;5107247;28;20035;-80
2021/03/19 12:02:57;;;;;;;9.55;7.45;;;12.20;99.90;;;;;;5115354;28;20016;-81
2021/03/19 12:05:23;;;;;;;7.80;6.88;;;12.40;99.90;;;;;;5090048;28;20551;-81
2021/03/19 12:07:49;;;;;;;8.57;6.93;;;12.90;99.90;;;;;;5095396;28;20024;-81
2021/03/19 12:10:18;;;;;;;8.15;7.05;;;12.80;99.90;;;;;;5095549;28;20111;-81
2021/03/19 12:12:44;;;;;;;9.05;6.70;;;17.90;99.90;;;;;;5100291;28;20149;-81
2021/03/19 12:15:16;;;;;;;7.90;7.10;;;21.30;99.90;;;;;;5106923;28;20484;-81
2021/03/19 12:17:41;;;;;;;9.32;7.18;;;23.00;99.90;;;;;;5110091;28;20492;-81
2021/03/19 12:20:08;;;;;;;7.50;6.63;;;19.20;99.90;;;;;;5095302;28;20052;-81
2021/03/19 12:22:33;;;;;;;7.18;6.47;;;18.70;99.90;;;;;;5095120;28;20032;-81
2021/03/19 12:24:59;;;;;;;8.95;7.80;;;16.90;99.90;;;;;;5095374;28;20028;-81
2021/03/19 12:27:26;;;;;;;8.00;7.18;;;15.00;99.90;;;;;;5094920;28;20060;-81
2021/03/19 12:29:52;;;;;;;8.23;7.32;;;13.80;99.90;;;;;;5110314;28;20028;-80
2021/03/19 12:32:20;;;;;;;8.57;7.43;;;13.40;99.90;;;;;;5095869;27;20059;-80
2021/03/19 12:34:47;;;;;;;8.73;7.55;;;17.10;99.90;;;;;;5095085;28;20024;-80
2021/03/19 12:37:13;;;;;;;8.13;7.28;;;16.50;99.90;;;;;;5094662;28;20028;-80
2021/03/19 12:39:39;;;;;;;7.70;6.85;;;20.50;99.90;;;;;;5094744;28;20036;-81
2021/03/19 12:42:05;;;;;;;8.55;7.57;;;21.90;99.90;;;;;;5095030;28;20077;-81
2021/03/19 12:44:30;;;;;;;9.40;6.95;;;21.40;99.90;;;;;;5112859;28;20106;-81
2021/03/19 12:46:58;;;;;;;7.03;6.40;;;18.50;99.90;;;;;;5098254;28;20107;-81
2021/03/19 12:49:23;;;;;;;7.57;6.82;;;16.60;99.90;;;;;;5094576;28;20480;-81
2021/03/19 12:51:50;;;;;;;7.72;7.03;;;15.30;99.90;;;;;;5094228;28;20052;-81
2021/03/19 12:54:16;;;;;;;7.72;6.93;;;14.10;99.90;;;;;;5094709;28;20128;-80
2021/03/19 12:56:41;;;;;;;9.88;7.63;;;13.40;99.90;;;;;;5094323;28;20028;-80
2021/03/19 12:59:07;;;;;;;8.35;7.25;;;13.50;99.90;;;;;;5094680;28;20055;-80
2021/03/19 13:01:33;;;;;;;7.35;6.60;;;14.40;99.90;;;;;;5094462;28;20095;-80
2021/03/19 13:03:58;;;;;;;9.63;7.03;;;18.60;99.90;;;;;;5111058;28;20027;-80
2021/03/19 13:06:24;;;;;;;7.47;6.68;;;20.70;99.90;;;;;;5113350;28;20073;-81
2021/03/19 13:08:50;;;;;;;8.43;6.55;;;17.60;99.90;;;;;;5106561;28;20051;-81
2021/03/19 13:11:16;;;;;;;8.32;6.95;;;15.10;99.90;;;;;;5106728;28;20019;-81
2021/03/19 13:13:43;;;;;;;6.57;5.85;;;14.40;99.90;;;;;;5113651;28;20152;-80
2021/03/19 13:16:09;;;;;;;7.00;6.30;;;13.50;99.90;;;;;;5114636;28;20016;-80
2021/03/19 13:18:34;;;;;;;7.13;6.35;;;13.30;99.90;;;;;;5114016;28;20038;-80